sensor_id;sensor_type;location;lat;lon;timestamp;P1;durP1;ratioP1;P2;durP2;ratioP2
29574;SDS011;16507;51.046;6.406;2023-05-10T00:00:36;24.10;;;16.08;;
29574;SDS011;16507;51.046;6.406;2023-05-10T00:03:02;25.52;;;17.10;;
29574;SDS011;16507;51.046;6.406;2023-05-10T00:05:29;23.83;;;16.70;;
29574;SDS011;16507;51.046;6.406;2023-05-10T00:07:55;26.50;;;16.63;;
29574;SDS011;16507;51.046;6.406;2023-05-10T00:10:21;24.63;;;17.33;;
29574;SDS011;16507;51.046;6.406;2023-05-10T00:12:47;25.50;;;17.55;;
29574;SDS011;16507;51.046;6.406;2023-05-10T00:15:13;28.60;;;17.55;;
29574;SDS011;16507;51.046;6.406;2023-05-10T00:17:38;29.77;;;18.15;;
29574;SDS011;16507;51.046;6.406;2023-05-10T00:20:04;28.65;;;17.67;;
29574;SDS011;16507;51.046;6.406;2023-05-10T00:22:30;27.67;;;17.90;;
29574;SDS011;16507;51.046;6.406;2023-05-10T00:24:56;28.05;;;16.90;;
29574;SDS011;16507;51.046;6.406;2023-05-10T00:27:25;25.15;;;16.80;;
29574;SDS011;16507;51.046;6.406;2023-05-10T00:29:50;27.40;;;17.33;;
29574;SDS011;16507;51.046;6.406;2023-05-10T00:32:17;21.35;;;15.85;;
29574;SDS011;16507;51.046;6.406;2023-05-10T00:34:43;28.25;;;17.85;;
29574;SDS011;16507;51.046;6.406;2023-05-10T00:37:08;26.02;;;17.60;;
29574;SDS011;16507;51.046;6.406;2023-05-10T00:39:34;30.27;;;17.77;;
29574;SDS011;16507;51.046;6.406;2023-05-10T00:41:59;34.13;;;18.50;;
29574;SDS011;16507;51.046;6.406;2023-05-10T00:44:25;34.28;;;19.63;;
29574;SDS011;16507;51.046;6.406;2023-05-10T00:46:51;30.55;;;18.55;;
29574;SDS011;16507;51.046;6.406;2023-05-10T00:49:17;31.83;;;19.50;;
29574;SDS011;16507;51.046;6.406;2023-05-10T00:51:43;34.88;;;20.10;;
29574;SDS011;16507;51.046;6.406;2023-05-10T00:54:13;30.58;;;19.10;;
29574;SDS011;16507;51.046;6.406;2023-05-10T00:56:40;29.60;;;19.15;;
29574;SDS011;16507;51.046;6.406;2023-05-10T00:59:07;33.60;;;18.73;;
29574;SDS011;16507;51.046;6.406;2023-05-10T01:01:33;38.13;;;20.40;;
29574;SDS011;16507;51.046;6.406;2023-05-10T01:04:00;33.50;;;19.90;;
29574;SDS011;16507;51.046;6.406;2023-05-10T01:06:28;31.77;;;19.95;;
29574;SDS011;16507;51.046;6.406;2023-05-10T01:08:54;32.10;;;18.63;;
29574;SDS011;16507;51.046;6.406;2023-05-10T01:11:20;32.22;;;19.02;;
29574;SDS011;16507;51.046;6.406;2023-05-10T01:13:47;30.67;;;18.17;;
29574;SDS011;16507;51.046;6.406;2023-05-10T01:16:20;32.45;;;18.38;;
29574;SDS011;16507;51.046;6.406;2023-05-10T01:18:46;29.58;;;16.75;;
29574;SDS011;16507;51.046;6.406;2023-05-10T01:26:56;23.92;;;15.60;;
29574;SDS011;16507;51.046;6.406;2023-05-10T01:29:52;27.30;;;15.20;;
29574;SDS011;16507;51.046;6.406;2023-05-10T01:35:22;22.63;;;13.73;;
29574;SDS011;16507;51.046;6.406;2023-05-10T01:43:37;18.63;;;13.05;;
29574;SDS011;16507;51.046;6.406;2023-05-10T01:46:30;17.73;;;12.60;;
29574;SDS011;16507;51.046;6.406;2023-05-10T01:49:08;19.52;;;13.40;;
29574;SDS011;16507;51.046;6.406;2023-05-10T01:51:47;19.17;;;13.15;;
29574;SDS011;16507;51.046;6.406;2023-05-10T01:54:17;16.08;;;11.55;;
29574;SDS011;16507;51.046;6.406;2023-05-10T01:56:45;18.05;;;12.70;;
29574;SDS011;16507;51.046;6.406;2023-05-10T01:59:15;14.07;;;10.98;;
29574;SDS011;16507;51.046;6.406;2023-05-10T02:01:43;16.23;;;12.20;;
29574;SDS011;16507;51.046;6.406;2023-05-10T02:04:12;13.55;;;10.65;;
29574;SDS011;16507;51.046;6.406;2023-05-10T02:06:41;13.55;;;11.25;;
29574;SDS011;16507;51.046;6.406;2023-05-10T02:09:08;17.90;;;12.50;;
29574;SDS011;16507;51.046;6.406;2023-05-10T02:11:36;19.98;;;13.75;;
29574;SDS011;16507;51.046;6.406;2023-05-10T02:14:04;16.98;;;12.80;;
29574;SDS011;16507;51.046;6.406;2023-05-10T02:16:34;18.30;;;13.13;;
29574;SDS011;16507;51.046;6.406;2023-05-10T02:19:01;19.42;;;13.75;;
29574;SDS011;16507;51.046;6.406;2023-05-10T02:21:31;23.38;;;14.93;;
29574;SDS011;16507;51.046;6.406;2023-05-10T02:23:57;19.88;;;14.10;;
29574;SDS011;16507;51.046;6.406;2023-05-10T02:26:25;19.55;;;14.20;;
29574;SDS011;16507;51.046;6.406;2023-05-10T02:28:51;18.25;;;13.88;;
29574;SDS011;16507;51.046;6.406;2023-05-10T02:31:19;17.63;;;12.75;;
29574;SDS011;16507;51.046;6.406;2023-05-10T02:33:49;18.13;;;12.63;;
29574;SDS011;16507;51.046;6.406;2023-05-10T02:36:16;16.13;;;12.50;;
29574;SDS011;16507;51.046;6.406;2023-05-10T02:38:43;16.58;;;12.25;;
29574;SDS011;16507;51.046;6.406;2023-05-10T02:41:10;17.13;;;12.20;;
29574;SDS011;16507;51.046;6.406;2023-05-10T02:43:37;24.45;;;12.45;;
29574;SDS011;16507;51.046;6.406;2023-05-10T02:46:04;18.15;;;13.40;;
29574;SDS011;16507;51.046;6.406;2023-05-10T02:48:30;18.58;;;12.80;;
29574;SDS011;16507;51.046;6.406;2023-05-10T02:50:56;21.92;;;12.82;;
29574;SDS011;16507;51.046;6.406;2023-05-10T02:53:31;18.20;;;12.80;;
29574;SDS011;16507;51.046;6.406;2023-05-10T02:56:01;24.23;;;13.52;;
29574;SDS011;16507;51.046;6.406;2023-05-10T02:58:32;29.40;;;14.32;;
29574;SDS011;16507;51.046;6.406;2023-05-10T03:00:57;23.33;;;13.98;;
29574;SDS011;16507;51.046;6.406;2023-05-10T03:03:24;29.08;;;15.90;;
29574;SDS011;16507;51.046;6.406;2023-05-10T03:05:50;31.52;;;18.30;;
29574;SDS011;16507;51.046;6.406;2023-05-10T03:08:15;37.45;;;19.38;;
29574;SDS011;16507;51.046;6.406;2023-05-10T03:10:44;37.30;;;19.45;;
29574;SDS011;16507;51.046;6.406;2023-05-10T03:15:58;33.60;;;18.73;;
29574;SDS011;16507;51.046;6.406;2023-05-10T03:18:44;37.92;;;19.83;;
29574;SDS011;16507;51.046;6.406;2023-05-10T03:21:19;35.47;;;19.05;;
29574;SDS011;16507;51.046;6.406;2023-05-10T03:23:50;35.92;;;20.10;;
29574;SDS011;16507;51.046;6.406;2023-05-10T03:26:28;23.83;;;14.25;;
29574;SDS011;16507;51.046;6.406;2023-05-10T03:28:55;29.30;;;18.05;;
29574;SDS011;16507;51.046;6.406;2023-05-10T03:31:23;30.13;;;18.65;;
29574;SDS011;16507;51.046;6.406;2023-05-10T03:33:49;29.30;;;17.77;;
29574;SDS011;16507;51.046;6.406;2023-05-10T03:36:16;27.88;;;16.85;;
29574;SDS011;16507;51.046;6.406;2023-05-10T03:38:42;24.45;;;16.58;;
29574;SDS011;16507;51.046;6.406;2023-05-10T03:41:08;21.75;;;15.63;;
29574;SDS011;16507;51.046;6.406;2023-05-10T03:43:34;25.13;;;14.80;;
29574;SDS011;16507;51.046;6.406;2023-05-10T03:46:01;28.33;;;13.68;;
29574;SDS011;16507;51.046;6.406;2023-05-10T03:48:28;19.13;;;13.02;;
29574;SDS011;16507;51.046;6.406;2023-05-10T03:50:53;18.98;;;12.25;;
29574;SDS011;16507;51.046;6.406;2023-05-10T03:53:19;16.38;;;12.10;;
29574;SDS011;16507;51.046;6.406;2023-05-10T03:55:45;24.48;;;13.45;;
29574;SDS011;16507;51.046;6.406;2023-05-10T03:58:11;28.83;;;13.07;;
29574;SDS011;16507;51.046;6.406;2023-05-10T04:00:40;14.38;;;12.00;;
29574;SDS011;16507;51.046;6.406;2023-05-10T04:03:09;22.58;;;12.18;;
29574;SDS011;16507;51.046;6.406;2023-05-10T04:05:35;13.93;;;11.20;;
29574;SDS011;16507;51.046;6.406;2023-05-10T04:08:01;16.92;;;12.02;;
29574;SDS011;16507;51.046;6.406;2023-05-10T04:10:27;22.10;;;13.35;;
29574;SDS011;16507;51.046;6.406;2023-05-10T04:12:53;28.50;;;12.20;;
29574;SDS011;16507;51.046;6.406;2023-05-10T04:15:18;31.05;;;12.93;;
29574;SDS011;16507;51.046;6.406;2023-05-10T04:17:44;20.98;;;12.50;;
29574;SDS011;16507;51.046;6.406;2023-05-10T04:20:10;21.58;;;13.00;;
29574;SDS011;16507;51.046;6.406;2023-05-10T04:22:36;17.48;;;12.65;;
29574;SDS011;16507;51.046;6.406;2023-05-10T04:25:03;20.10;;;12.85;;
29574;SDS011;16507;51.046;6.406;2023-05-10T04:27:29;22.50;;;12.60;;
29574;SDS011;16507;51.046;6.406;2023-05-10T04:29:55;24.52;;;14.18;;
29574;SDS011;16507;51.046;6.406;2023-05-10T04:32:21;23.42;;;13.82;;
29574;SDS011;16507;51.046;6.406;2023-05-10T04:34:47;21.73;;;13.70;;
29574;SDS011;16507;51.046;6.406;2023-05-10T04:37:12;34.00;;;16.05;;
29574;SDS011;16507;51.046;6.406;2023-05-10T04:39:38;26.08;;;14.32;;
29574;SDS011;16507;51.046;6.406;2023-05-10T04:42:04;22.95;;;13.50;;
29574;SDS011;16507;51.046;6.406;2023-05-10T04:44:30;28.88;;;14.82;;
29574;SDS011;16507;51.046;6.406;2023-05-10T04:46:56;24.42;;;13.98;;
29574;SDS011;16507;51.046;6.406;2023-05-10T04:49:22;18.92;;;13.40;;
29574;SDS011;16507;51.046;6.406;2023-05-10T04:51:48;21.42;;;12.70;;
29574;SDS011;16507;51.046;6.406;2023-05-10T04:54:13;25.17;;;14.65;;
29574;SDS011;16507;51.046;6.406;2023-05-10T04:56:39;26.17;;;14.70;;
29574;SDS011;16507;51.046;6.406;2023-05-10T04:59:06;21.65;;;14.68;;
29574;SDS011;16507;51.046;6.406;2023-05-10T05:01:31;25.58;;;14.73;;
29574;SDS011;16507;51.046;6.406;2023-05-10T05:03:57;23.83;;;14.43;;
29574;SDS011;16507;51.046;6.406;2023-05-10T05:06:23;34.45;;;14.32;;
29574;SDS011;16507;51.046;6.406;2023-05-10T05:08:49;22.45;;;14.32;;
29574;SDS011;16507;51.046;6.406;2023-05-10T05:11:15;28.42;;;15.60;;
29574;SDS011;16507;51.046;6.406;2023-05-10T05:13:45;37.92;;;17.25;;
29574;SDS011;16507;51.046;6.406;2023-05-10T05:16:11;31.85;;;17.33;;
29574;SDS011;16507;51.046;6.406;2023-05-10T05:18:37;29.48;;;16.98;;
29574;SDS011;16507;51.046;6.406;2023-05-10T05:21:02;37.13;;;17.40;;
29574;SDS011;16507;51.046;6.406;2023-05-10T05:23:28;37.92;;;17.75;;
29574;SDS011;16507;51.046;6.406;2023-05-10T05:25:53;40.97;;;19.27;;
29574;SDS011;16507;51.046;6.406;2023-05-10T05:28:20;38.72;;;19.20;;
29574;SDS011;16507;51.046;6.406;2023-05-10T05:30:45;35.42;;;20.00;;
29574;SDS011;16507;51.046;6.406;2023-05-10T05:33:13;32.90;;;18.10;;
29574;SDS011;16507;51.046;6.406;2023-05-10T05:35:38;43.40;;;19.80;;
29574;SDS011;16507;51.046;6.406;2023-05-10T05:38:04;43.80;;;19.52;;
29574;SDS011;16507;51.046;6.406;2023-05-10T05:40:31;46.35;;;20.70;;
29574;SDS011;16507;51.046;6.406;2023-05-10T05:42:56;43.42;;;20.55;;
29574;SDS011;16507;51.046;6.406;2023-05-10T05:45:22;41.22;;;20.80;;
29574;SDS011;16507;51.046;6.406;2023-05-10T05:47:47;41.28;;;21.42;;
29574;SDS011;16507;51.046;6.406;2023-05-10T05:50:13;48.05;;;20.60;;
29574;SDS011;16507;51.046;6.406;2023-05-10T05:52:38;37.53;;;20.40;;
29574;SDS011;16507;51.046;6.406;2023-05-10T05:55:04;43.40;;;21.58;;
29574;SDS011;16507;51.046;6.406;2023-05-10T05:57:30;36.10;;;20.15;;
29574;SDS011;16507;51.046;6.406;2023-05-10T05:59:56;48.97;;;20.70;;
29574;SDS011;16507;51.046;6.406;2023-05-10T06:02:21;47.88;;;21.40;;
29574;SDS011;16507;51.046;6.406;2023-05-10T06:04:47;38.20;;;20.23;;
29574;SDS011;16507;51.046;6.406;2023-05-10T06:07:13;48.20;;;20.92;;
29574;SDS011;16507;51.046;6.406;2023-05-10T06:09:38;41.72;;;21.00;;
29574;SDS011;16507;51.046;6.406;2023-05-10T06:12:06;46.85;;;21.38;;
29574;SDS011;16507;51.046;6.406;2023-05-10T06:14:31;41.88;;;19.95;;
29574;SDS011;16507;51.046;6.406;2023-05-10T06:16:57;38.70;;;20.98;;
29574;SDS011;16507;51.046;6.406;2023-05-10T06:19:24;41.10;;;19.35;;
29574;SDS011;16507;51.046;6.406;2023-05-10T06:21:51;37.72;;;19.55;;
29574;SDS011;16507;51.046;6.406;2023-05-10T06:24:16;38.88;;;20.33;;
29574;SDS011;16507;51.046;6.406;2023-05-10T06:26:42;44.45;;;21.48;;
29574;SDS011;16507;51.046;6.406;2023-05-10T06:29:07;42.47;;;20.42;;
29574;SDS011;16507;51.046;6.406;2023-05-10T06:31:33;48.70;;;22.05;;
29574;SDS011;16507;51.046;6.406;2023-05-10T06:33:59;40.45;;;21.15;;
29574;SDS011;16507;51.046;6.406;2023-05-10T06:36:24;42.90;;;21.30;;
29574;SDS011;16507;51.046;6.406;2023-05-10T06:38:51;44.95;;;21.02;;
29574;SDS011;16507;51.046;6.406;2023-05-10T06:41:16;51.53;;;21.70;;
29574;SDS011;16507;51.046;6.406;2023-05-10T06:43:42;40.20;;;20.15;;
29574;SDS011;16507;51.046;6.406;2023-05-10T06:46:08;41.28;;;20.65;;
29574;SDS011;16507;51.046;6.406;2023-05-10T06:48:34;42.33;;;20.30;;
29574;SDS011;16507;51.046;6.406;2023-05-10T06:50:59;37.85;;;20.55;;
29574;SDS011;16507;51.046;6.406;2023-05-10T06:53:25;40.03;;;21.13;;
29574;SDS011;16507;51.046;6.406;2023-05-10T06:55:50;44.92;;;22.15;;
29574;SDS011;16507;51.046;6.406;2023-05-10T06:58:16;42.88;;;21.10;;
29574;SDS011;16507;51.046;6.406;2023-05-10T07:00:42;44.42;;;20.95;;
29574;SDS011;16507;51.046;6.406;2023-05-10T07:03:09;39.15;;;21.30;;
29574;SDS011;16507;51.046;6.406;2023-05-10T07:05:35;44.05;;;23.08;;
29574;SDS011;16507;51.046;6.406;2023-05-10T07:08:01;44.10;;;22.27;;
29574;SDS011;16507;51.046;6.406;2023-05-10T07:10:27;49.53;;;21.85;;
29574;SDS011;16507;51.046;6.406;2023-05-10T07:12:52;50.65;;;22.80;;
29574;SDS011;16507;51.046;6.406;2023-05-10T07:15:18;38.28;;;21.83;;
29574;SDS011;16507;51.046;6.406;2023-05-10T07:17:44;50.90;;;23.77;;
29574;SDS011;16507;51.046;6.406;2023-05-10T07:20:10;55.67;;;23.90;;
29574;SDS011;16507;51.046;6.406;2023-05-10T07:22:36;59.22;;;25.90;;
29574;SDS011;16507;51.046;6.406;2023-05-10T07:25:01;62.28;;;26.20;;
29574;SDS011;16507;51.046;6.406;2023-05-10T07:27:27;63.65;;;28.80;;
29574;SDS011;16507;51.046;6.406;2023-05-10T07:29:53;58.75;;;27.58;;
29574;SDS011;16507;51.046;6.406;2023-05-10T07:32:19;64.82;;;28.38;;
29574;SDS011;16507;51.046;6.406;2023-05-10T07:34:45;55.35;;;27.92;;
29574;SDS011;16507;51.046;6.406;2023-05-10T07:37:11;57.13;;;27.35;;
29574;SDS011;16507;51.046;6.406;2023-05-10T07:39:37;59.90;;;25.45;;
29574;SDS011;16507;51.046;6.406;2023-05-10T07:42:02;54.85;;;25.30;;
29574;SDS011;16507;51.046;6.406;2023-05-10T07:44:28;53.63;;;25.77;;
29574;SDS011;16507;51.046;6.406;2023-05-10T07:46:54;54.40;;;25.55;;
29574;SDS011;16507;51.046;6.406;2023-05-10T07:49:20;48.65;;;24.63;;
29574;SDS011;16507;51.046;6.406;2023-05-10T07:51:49;51.97;;;24.77;;
29574;SDS011;16507;51.046;6.406;2023-05-10T07:54:15;55.47;;;24.77;;
29574;SDS011;16507;51.046;6.406;2023-05-10T07:56:40;48.08;;;24.85;;
29574;SDS011;16507;51.046;6.406;2023-05-10T07:59:14;54.13;;;24.83;;
29574;SDS011;16507;51.046;6.406;2023-05-10T08:01:43;53.42;;;26.10;;
29574;SDS011;16507;51.046;6.406;2023-05-10T08:04:09;47.83;;;24.75;;
29574;SDS011;16507;51.046;6.406;2023-05-10T08:06:34;52.42;;;24.35;;
29574;SDS011;16507;51.046;6.406;2023-05-10T08:09:00;54.47;;;24.75;;
29574;SDS011;16507;51.046;6.406;2023-05-10T08:11:26;50.70;;;24.90;;
29574;SDS011;16507;51.046;6.406;2023-05-10T08:13:52;53.17;;;25.23;;
29574;SDS011;16507;51.046;6.406;2023-05-10T08:16:19;54.00;;;25.48;;
29574;SDS011;16507;51.046;6.406;2023-05-10T08:18:45;51.47;;;22.63;;
29574;SDS011;16507;51.046;6.406;2023-05-10T08:21:12;52.47;;;22.02;;
29574;SDS011;16507;51.046;6.406;2023-05-10T08:23:38;39.35;;;21.02;;
29574;SDS011;16507;51.046;6.406;2023-05-10T08:26:04;42.67;;;21.75;;
29574;SDS011;16507;51.046;6.406;2023-05-10T08:28:30;38.05;;;19.83;;
29574;SDS011;16507;51.046;6.406;2023-05-10T08:30:55;39.28;;;21.10;;
29574;SDS011;16507;51.046;6.406;2023-05-10T08:33:21;37.75;;;20.35;;
29574;SDS011;16507;51.046;6.406;2023-05-10T08:35:46;37.17;;;20.23;;
29574;SDS011;16507;51.046;6.406;2023-05-10T08:38:12;34.22;;;19.52;;
29574;SDS011;16507;51.046;6.406;2023-05-10T08:40:39;36.83;;;18.13;;
29574;SDS011;16507;51.046;6.406;2023-05-10T08:43:08;35.78;;;18.50;;
29574;SDS011;16507;51.046;6.406;2023-05-10T08:45:38;32.95;;;17.98;;
29574;SDS011;16507;51.046;6.406;2023-05-10T08:48:05;35.88;;;19.52;;
29574;SDS011;16507;51.046;6.406;2023-05-10T08:50:32;32.55;;;17.80;;
29574;SDS011;16507;51.046;6.406;2023-05-10T08:53:04;35.58;;;20.50;;
29574;SDS011;16507;51.046;6.406;2023-05-10T08:55:40;35.33;;;20.70;;
29574;SDS011;16507;51.046;6.406;2023-05-10T08:58:07;33.08;;;20.33;;
29574;SDS011;16507;51.046;6.406;2023-05-10T09:00:33;35.50;;;19.35;;
29574;SDS011;16507;51.046;6.406;2023-05-10T09:03:00;36.75;;;18.70;;
29574;SDS011;16507;51.046;6.406;2023-05-10T09:05:26;36.55;;;20.95;;
29574;SDS011;16507;51.046;6.406;2023-05-10T09:07:53;33.55;;;18.73;;
29574;SDS011;16507;51.046;6.406;2023-05-10T09:10:19;30.50;;;18.90;;
29574;SDS011;16507;51.046;6.406;2023-05-10T09:12:45;35.05;;;19.52;;
29574;SDS011;16507;51.046;6.406;2023-05-10T09:15:14;30.98;;;19.02;;
29574;SDS011;16507;51.046;6.406;2023-05-10T09:17:40;30.60;;;19.55;;
29574;SDS011;16507;51.046;6.406;2023-05-10T09:20:06;33.65;;;19.20;;
29574;SDS011;16507;51.046;6.406;2023-05-10T09:22:35;24.00;;;15.55;;
29574;SDS011;16507;51.046;6.406;2023-05-10T09:27:37;17.73;;;12.23;;
29574;SDS011;16507;51.046;6.406;2023-05-10T09:30:04;20.45;;;13.10;;
29574;SDS011;16507;51.046;6.406;2023-05-10T09:32:46;24.25;;;14.57;;
29574;SDS011;16507;51.046;6.406;2023-05-10T09:35:17;21.40;;;13.97;;
29574;SDS011;16507;51.046;6.406;2023-05-10T09:37:46;23.05;;;14.68;;
29574;SDS011;16507;51.046;6.406;2023-05-10T09:40:14;18.73;;;13.57;;
29574;SDS011;16507;51.046;6.406;2023-05-10T09:45:25;25.75;;;12.50;;
29574;SDS011;16507;51.046;6.406;2023-05-10T09:47:53;16.95;;;10.82;;
29574;SDS011;16507;51.046;6.406;2023-05-10T09:50:19;16.00;;;11.50;;
29574;SDS011;16507;51.046;6.406;2023-05-10T09:52:46;20.25;;;11.13;;
29574;SDS011;16507;51.046;6.406;2023-05-10T09:55:16;17.65;;;11.18;;
29574;SDS011;16507;51.046;6.406;2023-05-10T09:57:43;15.50;;;10.85;;
29574;SDS011;16507;51.046;6.406;2023-05-10T10:00:09;17.05;;;10.30;;
29574;SDS011;16507;51.046;6.406;2023-05-10T10:02:35;15.98;;;9.60;;
29574;SDS011;16507;51.046;6.406;2023-05-10T10:05:01;18.73;;;11.38;;
29574;SDS011;16507;51.046;6.406;2023-05-10T10:07:30;20.40;;;11.75;;
29574;SDS011;16507;51.046;6.406;2023-05-10T10:09:57;15.95;;;10.50;;
29574;SDS011;16507;51.046;6.406;2023-05-10T10:12:23;16.42;;;10.77;;
29574;SDS011;16507;51.046;6.406;2023-05-10T10:14:50;15.73;;;10.63;;
29574;SDS011;16507;51.046;6.406;2023-05-10T10:17:16;17.20;;;11.30;;
29574;SDS011;16507;51.046;6.406;2023-05-10T10:19:42;16.42;;;11.98;;
29574;SDS011;16507;51.046;6.406;2023-05-10T10:22:08;13.93;;;11.00;;
29574;SDS011;16507;51.046;6.406;2023-05-10T10:24:36;14.55;;;11.15;;
29574;SDS011;16507;51.046;6.406;2023-05-10T10:27:08;11.30;;;9.85;;
29574;SDS011;16507;51.046;6.406;2023-05-10T10:30:13;13.68;;;9.80;;
29574;SDS011;16507;51.046;6.406;2023-05-10T10:35:28;9.55;;;8.18;;
29574;SDS011;16507;51.046;6.406;2023-05-10T10:37:55;12.32;;;9.80;;
29574;SDS011;16507;51.046;6.406;2023-05-10T10:40:25;10.35;;;8.65;;
29574;SDS011;16507;51.046;6.406;2023-05-10T10:42:58;12.85;;;8.98;;
29574;SDS011;16507;51.046;6.406;2023-05-10T10:45:48;9.85;;;8.55;;
29574;SDS011;16507;51.046;6.406;2023-05-10T10:48:38;10.57;;;9.57;;
29574;SDS011;16507;51.046;6.406;2023-05-10T10:51:23;9.82;;;8.82;;
29574;SDS011;16507;51.046;6.406;2023-05-10T10:53:49;11.07;;;9.18;;
29574;SDS011;16507;51.046;6.406;2023-05-10T10:56:14;9.57;;;7.95;;
29574;SDS011;16507;51.046;6.406;2023-05-10T10:58:40;14.60;;;8.52;;
29574;SDS011;16507;51.046;6.406;2023-05-10T11:01:13;8.98;;;8.10;;
29574;SDS011;16507;51.046;6.406;2023-05-10T11:03:40;9.38;;;7.97;;
29574;SDS011;16507;51.046;6.406;2023-05-10T11:06:28;7.30;;;6.60;;
29574;SDS011;16507;51.046;6.406;2023-05-10T11:08:57;6.40;;;5.90;;
29574;SDS011;16507;51.046;6.406;2023-05-10T11:11:23;6.45;;;5.95;;
29574;SDS011;16507;51.046;6.406;2023-05-10T11:13:48;7.20;;;6.65;;
29574;SDS011;16507;51.046;6.406;2023-05-10T11:16:24;6.97;;;6.32;;
29574;SDS011;16507;51.046;6.406;2023-05-10T11:21:23;5.40;;;5.00;;
29574;SDS011;16507;51.046;6.406;2023-05-10T11:23:49;6.88;;;5.28;;
29574;SDS011;16507;51.046;6.406;2023-05-10T11:26:21;5.78;;;5.13;;
29574;SDS011;16507;51.046;6.406;2023-05-10T11:28:55;5.43;;;5.00;;
29574;SDS011;16507;51.046;6.406;2023-05-10T11:31:21;6.22;;;5.72;;
29574;SDS011;16507;51.046;6.406;2023-05-10T11:33:49;7.10;;;5.78;;
29574;SDS011;16507;51.046;6.406;2023-05-10T11:36:34;4.95;;;4.50;;
29574;SDS011;16507;51.046;6.406;2023-05-10T11:39:00;6.00;;;5.60;;
29574;SDS011;16507;51.046;6.406;2023-05-10T11:41:27;5.72;;;4.50;;
29574;SDS011;16507;51.046;6.406;2023-05-10T11:43:55;4.65;;;4.10;;
29574;SDS011;16507;51.046;6.406;2023-05-10T11:46:22;5.53;;;4.57;;
29574;SDS011;16507;51.046;6.406;2023-05-10T11:48:50;4.43;;;4.07;;
29574;SDS011;16507;51.046;6.406;2023-05-10T11:51:21;4.50;;;4.20;;
29574;SDS011;16507;51.046;6.406;2023-05-10T11:53:48;4.47;;;4.07;;
29574;SDS011;16507;51.046;6.406;2023-05-10T11:56:15;4.32;;;4.03;;
29574;SDS011;16507;51.046;6.406;2023-05-10T11:58:41;4.72;;;4.38;;
29574;SDS011;16507;51.046;6.406;2023-05-10T12:01:07;5.40;;;5.00;;
29574;SDS011;16507;51.046;6.406;2023-05-10T12:03:34;6.20;;;5.28;;
29574;SDS011;16507;51.046;6.406;2023-05-10T12:06:01;6.05;;;5.28;;
29574;SDS011;16507;51.046;6.406;2023-05-10T12:08:28;4.65;;;4.35;;
29574;SDS011;16507;51.046;6.406;2023-05-10T12:11:04;5.35;;;4.85;;
29574;SDS011;16507;51.046;6.406;2023-05-10T12:13:37;4.95;;;4.55;;
29574;SDS011;16507;51.046;6.406;2023-05-10T12:16:16;4.50;;;4.20;;
29574;SDS011;16507;51.046;6.406;2023-05-10T12:18:52;4.80;;;4.40;;
29574;SDS011;16507;51.046;6.406;2023-05-10T12:21:21;3.75;;;3.45;;
29574;SDS011;16507;51.046;6.406;2023-05-10T12:23:51;3.88;;;3.58;;
29574;SDS011;16507;51.046;6.406;2023-05-10T12:26:17;4.07;;;3.78;;
29574;SDS011;16507;51.046;6.406;2023-05-10T12:28:46;3.88;;;3.58;;
29574;SDS011;16507;51.046;6.406;2023-05-10T12:31:11;4.35;;;4.00;;
29574;SDS011;16507;51.046;6.406;2023-05-10T12:36:04;5.32;;;3.80;;
29574;SDS011;16507;51.046;6.406;2023-05-10T12:41:11;3.35;;;3.05;;
29574;SDS011;16507;51.046;6.406;2023-05-10T12:43:38;3.22;;;3.03;;
29574;SDS011;16507;51.046;6.406;2023-05-10T12:46:08;5.88;;;3.70;;
29574;SDS011;16507;51.046;6.406;2023-05-10T12:48:35;3.55;;;3.35;;
29574;SDS011;16507;51.046;6.406;2023-05-10T12:51:02;4.05;;;3.75;;
29574;SDS011;16507;51.046;6.406;2023-05-10T12:53:28;3.80;;;3.42;;
29574;SDS011;16507;51.046;6.406;2023-05-10T12:55:54;3.75;;;3.45;;
29574;SDS011;16507;51.046;6.406;2023-05-10T12:58:19;6.78;;;3.55;;
29574;SDS011;16507;51.046;6.406;2023-05-10T13:00:45;3.63;;;3.42;;
29574;SDS011;16507;51.046;6.406;2023-05-10T13:03:11;3.38;;;3.17;;
29574;SDS011;16507;51.046;6.406;2023-05-10T13:05:36;4.03;;;3.72;;
29574;SDS011;16507;51.046;6.406;2023-05-10T13:08:02;3.25;;;3.05;;
29574;SDS011;16507;51.046;6.406;2023-05-10T13:10:29;3.50;;;3.28;;
29574;SDS011;16507;51.046;6.406;2023-05-10T13:12:55;3.63;;;3.42;;
29574;SDS011;16507;51.046;6.406;2023-05-10T13:15:22;6.10;;;3.55;;
29574;SDS011;16507;51.046;6.406;2023-05-10T13:17:47;2.97;;;2.78;;
29574;SDS011;16507;51.046;6.406;2023-05-10T13:20:13;2.72;;;2.53;;
29574;SDS011;16507;51.046;6.406;2023-05-10T13:22:39;4.00;;;2.90;;
29574;SDS011;16507;51.046;6.406;2023-05-10T13:25:05;6.82;;;2.88;;
29574;SDS011;16507;51.046;6.406;2023-05-10T13:27:31;4.20;;;2.90;;
29574;SDS011;16507;51.046;6.406;2023-05-10T13:29:57;3.00;;;2.80;;
29574;SDS011;16507;51.046;6.406;2023-05-10T13:32:24;2.97;;;2.67;;
29574;SDS011;16507;51.046;6.406;2023-05-10T13:34:50;4.05;;;3.13;;
29574;SDS011;16507;51.046;6.406;2023-05-10T13:37:16;4.05;;;3.65;;
29574;SDS011;16507;51.046;6.406;2023-05-10T13:39:42;3.45;;;3.10;;
29574;SDS011;16507;51.046;6.406;2023-05-10T13:42:07;3.08;;;2.88;;
29574;SDS011;16507;51.046;6.406;2023-05-10T13:44:33;3.70;;;3.40;;
29574;SDS011;16507;51.046;6.406;2023-05-10T13:46:58;3.50;;;3.30;;
29574;SDS011;16507;51.046;6.406;2023-05-10T13:49:24;3.38;;;3.17;;
29574;SDS011;16507;51.046;6.406;2023-05-10T13:51:49;3.28;;;2.97;;
29574;SDS011;16507;51.046;6.406;2023-05-10T13:54:15;3.25;;;2.95;;
29574;SDS011;16507;51.046;6.406;2023-05-10T13:56:44;7.97;;;3.70;;
29574;SDS011;16507;51.046;6.406;2023-05-10T13:59:12;3.33;;;3.03;;
29574;SDS011;16507;51.046;6.406;2023-05-10T14:01:39;7.30;;;3.55;;
29574;SDS011;16507;51.046;6.406;2023-05-10T14:04:05;3.65;;;3.38;;
29574;SDS011;16507;51.046;6.406;2023-05-10T14:06:32;3.47;;;3.22;;
29574;SDS011;16507;51.046;6.406;2023-05-10T14:08:57;5.00;;;4.70;;
29574;SDS011;16507;51.046;6.406;2023-05-10T14:11:23;4.65;;;4.25;;
29574;SDS011;16507;51.046;6.406;2023-05-10T14:13:48;4.15;;;3.83;;
29574;SDS011;16507;51.046;6.406;2023-05-10T14:16:14;4.72;;;4.32;;
29574;SDS011;16507;51.046;6.406;2023-05-10T14:18:39;4.05;;;3.78;;
29574;SDS011;16507;51.046;6.406;2023-05-10T14:21:05;4.50;;;4.20;;
29574;SDS011;16507;51.046;6.406;2023-05-10T14:23:31;3.70;;;3.47;;
29574;SDS011;16507;51.046;6.406;2023-05-10T14:25:59;3.83;;;3.53;;
29574;SDS011;16507;51.046;6.406;2023-05-10T14:28:25;4.20;;;3.20;;
29574;SDS011;16507;51.046;6.406;2023-05-10T14:30:51;3.28;;;2.97;;
29574;SDS011;16507;51.046;6.406;2023-05-10T14:33:16;4.15;;;3.15;;
29574;SDS011;16507;51.046;6.406;2023-05-10T14:35:42;3.97;;;3.08;;
29574;SDS011;16507;51.046;6.406;2023-05-10T14:38:08;4.93;;;3.13;;
29574;SDS011;16507;51.046;6.406;2023-05-10T14:40:33;3.85;;;3.40;;
29574;SDS011;16507;51.046;6.406;2023-05-10T14:42:59;4.03;;;3.78;;
29574;SDS011;16507;51.046;6.406;2023-05-10T14:45:25;3.20;;;3.00;;
29574;SDS011;16507;51.046;6.406;2023-05-10T14:47:51;3.78;;;2.60;;
29574;SDS011;16507;51.046;6.406;2023-05-10T14:50:17;3.28;;;3.03;;
29574;SDS011;16507;51.046;6.406;2023-05-10T14:52:43;3.50;;;2.88;;
29574;SDS011;16507;51.046;6.406;2023-05-10T14:55:09;2.85;;;2.63;;
29574;SDS011;16507;51.046;6.406;2023-05-10T14:57:35;3.35;;;2.60;;
29574;SDS011;16507;51.046;6.406;2023-05-10T15:00:01;3.25;;;2.50;;
29574;SDS011;16507;51.046;6.406;2023-05-10T15:02:28;2.28;;;2.10;;